| time (UTC) | temp C | wind direction | speed KPH | gust KPH | rain 1hr cm | rain 24hr cm | rain mn cm | humidity % | barometer mb |
| 20260505114558 | 6 | 198 | 1.6 | 3.2 | 0.00 | 0.00 | 0.00 | 69 | 1004.1 |
| 20260505113110 | 6 | 18 | 1.6 | 4.8 | 0.00 | 0.00 | 0.00 | 66 | 1004.4 |
| 20260505111555 | 6 | 207 | 0.0 | 3.2 | 0.00 | 0.00 | 0.00 | 67 | 1004.2 |
| 20260505101550 | 5 | 224 | 0.0 | 1.6 | 0.00 | 0.00 | 0.00 | 68 | 1003.9 |
| 20260505100052 | 6 | 22 | 0.0 | 1.6 | 0.00 | 0.00 | 0.00 | 67 | 1003.8 |
| 20260505094547 | 6 | 153 | 1.6 | 6.4 | 0.00 | 0.00 | 0.00 | 67 | 1003.8 |
| 20260505093047 | 6 | 71 | 0.0 | 3.2 | 0.00 | 0.00 | 0.00 | 67 | 1003.6 |
| 20260505091559 | 6 | 117 | 0.0 | 1.6 | 0.00 | 0.00 | 0.00 | 66 | 1003.7 |
| 20260505090043 | 6 | 33 | 0.0 | 1.6 | 0.00 | 0.00 | 0.00 | 65 | 1003.7 |
| 20260505084539 | 7 | 271 | 0.0 | 4.8 | 0.00 | 0.00 | 0.00 | 64 | 1004.0 |
| 20260505083036 | 7 | 224 | 0.0 | 3.2 | 0.00 | 0.00 | 0.00 | 63 | 1004.2 |
| 20260505081537 | 7 | 229 | 0.0 | 3.2 | 0.00 | 0.00 | 0.00 | 62 | 1004.2 |
| 20260505080031 | 8 | 224 | 0.0 | 1.6 | 0.00 | 0.00 | 0.00 | 61 | 1004.3 |
| 20260505074528 | 8 | 182 | 0.0 | 1.6 | 0.00 | 0.00 | 0.00 | 60 | 1004.2 |
| 20260505073025 | 8 | 224 | 0.0 | 1.6 | 0.00 | 0.00 | 0.00 | 58 | 1004.1 |
| 20260505071525 | 9 | 228 | 0.0 | 3.2 | 0.00 | 0.00 | 0.00 | 57 | 1004.1 |
| 20260505070023 | 9 | 221 | 0.0 | 4.8 | 0.00 | 0.00 | 0.00 | 58 | 1004.1 |
| 20260505064520 | 9 | 235 | 0.0 | 3.2 | 0.00 | 0.00 | 0.00 | 58 | 1004.0 |
| 20260505063018 | 9 | 334 | 0.0 | 6.4 | 0.00 | 0.00 | 0.00 | 59 | 1003.8 |
| 20260505061640 | 8 | 230 | 0.0 | 3.2 | 0.00 | 0.00 | 0.00 | 60 | 1003.7 |
| 20260505060014 | 9 | 29 | 0.0 | 3.2 | 0.00 | 0.00 | 0.00 | 59 | 1003.7 |
| 20260505054513 | 10 | 195 | 0.0 | 0.0 | 0.00 | 0.00 | 0.00 | 57 | 1003.4 |
| 20260505053012 | 10 | 210 | 0.0 | 4.8 | 0.00 | 0.00 | 0.00 | 57 | 1003.4 |
| 20260505051530 | 10 | 243 | 0.0 | 3.2 | 0.00 | 0.00 | 0.00 | 55 | 1003.4 |
| 20260505041510 | 11 | 231 | 0.0 | 0.0 | 0.00 | 0.00 | 0.00 | 51 | 1002.8 |
| 20260505040013 | 12 | 238 | 0.0 | 0.0 | 0.00 | 0.00 | 0.00 | 49 | 1002.7 |
| 20260505034513 | 12 | 235 | 0.0 | 0.0 | 0.00 | 0.00 | 0.00 | 47 | 1002.3 |
| 20260505033008 | 13 | 44 | 0.0 | 0.0 | 0.00 | 0.00 | 0.00 | 48 | 1002.0 |
| 20260505031508 | 13 | 229 | 0.0 | 0.0 | 0.00 | 0.00 | 0.00 | 45 | 1001.7 |
| 20260505030008 | 13 | 229 | 0.0 | 4.8 | 0.00 | 0.00 | 0.00 | 42 | 1001.5 |
| 20260505024510 | 14 | 230 | 0.0 | 3.2 | 0.00 | 0.00 | 0.00 | 42 | 1001.2 |
| 20260505023006 | 15 | 88 | 0.0 | 3.2 | 0.00 | 0.00 | 0.00 | 40 | 1001.2 |
| 20260505021506 | 15 | 42 | 0.0 | 3.2 | 0.00 | 0.00 | 0.00 | 39 | 1001.0 |
| 20260505020008 | 16 | 40 | 0.0 | 1.6 | 0.00 | 0.00 | 0.00 | 36 | 1000.8 |
| 20260505014505 | 17 | 19 | 0.0 | 1.6 | 0.00 | 0.00 | 0.00 | 35 | 1000.8 |
| 20260505013003 | 17 | 105 | 0.0 | 1.6 | 0.00 | 0.00 | 0.00 | 33 | 1000.9 |
| 20260505011504 | 18 | 256 | 0.0 | 4.8 | 0.00 | 0.00 | 0.00 | 32 | 1000.9 |
| 20260505010002 | 18 | 123 | 0.0 | 9.7 | 0.00 | 0.00 | 0.00 | 29 | 1000.9 |
| 20260505004504 | 18 | 46 | 1.6 | 9.7 | 0.00 | 0.00 | 0.00 | 29 | 1001.0 |
| 20260505003100 | 18 | 41 | 0.0 | 11.3 | 0.00 | 0.00 | 0.00 | 30 | 1001.1 |
| 20260505001605 | 17 | 221 | 3.2 | 9.7 | 0.00 | 0.00 | 0.00 | 29 | 1001.2 |
| 20260504234557 | 18 | 169 | 1.6 | 14.5 | 0.00 | 0.00 | 0.00 | 28 | 1001.3 |
| 20260504233108 | 18 | 68 | 8.0 | 17.7 | 0.00 | 0.00 | 0.00 | 27 | 1001.5 |
| 20260504231603 | 20 | 30 | 9.7 | 24.1 | 0.00 | 0.00 | 0.00 | 25 | 1001.4 |
| 20260504230058 | 21 | 44 | 3.2 | 22.5 | 0.00 | 0.00 | 0.00 | 24 | 1000.9 |
| 20260504224554 | 21 | 94 | 9.7 | 19.3 | 0.00 | 0.00 | 0.00 | 23 | 1001.1 |
| 20260504223051 | 21 | 83 | 8.0 | 20.9 | 0.00 | 0.00 | 0.00 | 24 | 1001.1 |
| 20260504221548 | 20 | 281 | 8.0 | 19.3 | 0.00 | 0.00 | 0.00 | 24 | 1001.3 |
| 20260504220047 | 19 | 8 | 8.0 | 16.1 | 0.00 | 0.00 | 0.00 | 26 | 1001.5 |
| 20260504214553 | 20 | 35 | 6.4 | 11.3 | 0.00 | 0.00 | 0.00 | 25 | 1001.9 |
| 20260504213043 | 18 | 360 | 4.8 | 11.3 | 0.00 | 0.00 | 0.00 | 26 | 1002.2 |
| 20260504211541 | 19 | 278 | 1.6 | 16.1 | 0.00 | 0.00 | 0.00 | 26 | 1002.5 |
| 20260504210044 | 19 | 93 | 4.8 | 17.7 | 0.00 | 0.00 | 0.00 | 25 | 1002.6 |
| 20260504204546 | 19 | 37 | 11.3 | 19.3 | 0.00 | 0.00 | 0.00 | 27 | 1002.7 |
| 20260504203050 | 18 | 287 | 4.8 | 16.1 | 0.00 | 0.00 | 0.00 | 26 | 1003.0 |
| 20260504201533 | 20 | 302 | 1.6 | 8.0 | 0.00 | 0.00 | 0.00 | 24 | 1003.2 |
| 20260504200032 | 20 | 182 | 1.6 | 14.5 | 0.00 | 0.00 | 0.00 | 25 | 1003.2 |
| 20260504194534 | 19 | 18 | 9.7 | 22.5 | 0.00 | 0.00 | 0.00 | 26 | 1003.3 |
| 20260504193029 | 19 | 342 | 6.4 | 14.5 | 0.00 | 0.00 | 0.00 | 26 | 1003.4 |
| 20260504191527 | 18 | 33 | 1.6 | 17.7 | 0.00 | 0.00 | 0.00 | 26 | 1003.7 |
| 20260504190025 | 18 | 48 | 9.7 | 22.5 | 0.00 | 0.00 | 0.00 | 25 | 1003.9 |
| 20260504184524 | 19 | 49 | 4.8 | 16.1 | 0.00 | 0.00 | 0.00 | 25 | 1003.9 |
| 20260504183030 | 19 | 151 | 6.4 | 14.5 | 0.00 | 0.00 | 0.00 | 24 | 1004.1 |
| 20260504181520 | 18 | 228 | 4.8 | 17.7 | 0.00 | 0.00 | 0.00 | 24 | 1004.2 |
| 20260504180019 | 18 | 128 | 4.8 | 16.1 | 0.00 | 0.00 | 0.00 | 25 | 1004.4 |
| 20260504174515 | 18 | 219 | 4.8 | 12.9 | 0.00 | 0.00 | 0.00 | 25 | 1004.5 |
| 20260504173013 | 18 | 62 | 8.0 | 19.3 | 0.00 | 0.00 | 0.00 | 26 | 1004.7 |
| 20260504171512 | 18 | 272 | 6.4 | 14.5 | 0.00 | 0.00 | 0.00 | 26 | 1004.8 |
| 20260504160104 | 15 | 20 | 0.0 | 4.8 | 0.00 | 0.00 | 0.00 | 35 | 1005.8 |